Time;durP1;ratioP1;P1;durP2;ratioP2;P2;SDS_P1;SDS_P2;PMS_P1;PMS_P2;Temp;Humidity;BMP_temperature;BMP_pressure;BME280_temperature;BME280_humidity;BME280_pressure;Samples;Min_cycle;Max_cycle;Signal;HPM_P1;HPM_P2
2022/09/27 00:01:25;;;;;;;2.25;0.85;;;;;;;;;;4958456;29;20043;-71
2022/09/27 00:03:55;;;;;;;5.03;1.45;;;;;;;;;;4958400;29;20043;-71
2022/09/27 00:06:25;;;;;;;1.92;0.95;;;;;;;;;;4958343;29;20072;-71
2022/09/27 00:08:52;;;;;;;4.82;1.08;;;;;;;;;;4958214;29;20035;-71
2022/09/27 00:11:21;;;;;;;3.90;0.90;;;;;;;;;;4958686;29;20352;-71
2022/09/27 00:13:47;;;;;;;5.00;0.93;;;;;;;;;;4957994;29;20086;-71
2022/09/27 00:16:13;;;;;;;4.00;1.00;;;;;;;;;;4957820;29;20506;-71
2022/09/27 00:18:39;;;;;;;3.80;1.10;;;;;;;;;;4957986;29;20043;-71
2022/09/27 00:21:07;;;;;;;3.08;0.90;;;;;;;;;;4958121;29;20043;-71
2022/09/27 00:23:34;;;;;;;1.38;0.70;;;;;;;;;;4958404;29;20047;-71
2022/09/27 00:26:00;;;;;;;2.42;0.70;;;;;;;;;;4958235;29;20498;-71
2022/09/27 00:28:27;;;;;;;2.90;0.85;;;;;;;;;;4957617;29;20505;-71
2022/09/27 00:30:53;;;;;;;1.70;0.70;;;;;;;;;;4957907;29;20043;-71
2022/09/27 00:33:19;;;;;;;2.75;0.88;;;;;;;;;;4957231;29;20577;-71
2022/09/27 00:35:46;;;;;;;2.75;0.63;;;;;;;;;;4957750;29;20047;-71
2022/09/27 00:38:12;;;;;;;1.55;0.70;;;;;;;;;;4957660;29;20134;-71
2022/09/27 00:40:38;;;;;;;2.05;0.63;;;;;;;;;;4957773;29;20081;-71
2022/09/27 00:43:18;;;;;;;1.92;0.85;;;;;;;;;;4957614;28;20075;-71
2022/09/27 00:45:54;;;;;;;2.50;0.88;;;;;;;;;;4957318;29;20038;-71
2022/09/27 00:48:22;;;;;;;1.42;0.57;;;;;;;;;;4957276;29;20043;-71
2022/09/27 00:50:50;;;;;;;1.80;0.57;;;;;;;;;;4957479;29;20122;-71
2022/09/27 00:53:35;;;;;;;1.75;0.57;;;;;;;;;;4957706;29;20507;-71
2022/09/27 00:56:06;;;;;;;1.50;0.32;;;;;;;;;;4957364;29;20050;-71
2022/09/27 00:58:37;;;;;;;1.05;0.45;;;;;;;;;;4957522;29;20043;-71
2022/09/27 01:01:05;;;;;;;0.98;0.45;;;;;;;;;;4957474;29;20043;-71
2022/09/27 01:03:38;;;;;;;1.05;0.35;;;;;;;;;;4957222;29;20054;-71
2022/09/27 01:06:06;;;;;;;0.57;0.20;;;;;;;;;;4956748;29;20050;-71
2022/09/27 01:08:32;;;;;;;2.08;0.43;;;;;;;;;;4957399;29;20052;-71
2022/09/27 01:11:04;;;;;;;1.17;0.40;;;;;;;;;;4957601;29;20054;-71
2022/09/27 01:13:35;;;;;;;0.63;0.20;;;;;;;;;;4956833;29;20106;-71
2022/09/27 01:16:01;;;;;;;;;;;;;;;;;;4957821;29;20046;-71
2022/09/27 01:18:34;;;;;;;0.63;0.20;;;;;;;;;;4957143;29;19921;-71
2022/09/27 01:21:23;;;;;;;0.30;0.30;;;;;;;;;;4957632;29;20504;-71
2022/09/27 01:24:04;;;;;;;0.45;0.28;;;;;;;;;;4957237;29;20103;-71
2022/09/27 01:26:49;;;;;;;1.13;0.15;;;;;;;;;;4956668;29;20611;-71
2022/09/27 01:29:21;;;;;;;0.82;0.20;;;;;;;;;;4956525;29;20529;-71
2022/09/27 01:32:08;;;;;;;0.20;0.20;;;;;;;;;;4957133;29;20043;-71
2022/09/27 01:34:38;;;;;;;0.55;0.30;;;;;;;;;;4956790;29;20046;-71
2022/09/27 01:37:31;;;;;;;1.35;0.30;;;;;;;;;;4957135;29;20094;-71
2022/09/27 01:40:19;;;;;;;0.70;0.30;;;;;;;;;;4952591;29;20073;-71
2022/09/27 01:42:48;;;;;;;0.43;0.30;;;;;;;;;;4957100;29;20035;-71
2022/09/27 01:45:14;;;;;;;0.60;0.30;;;;;;;;;;4956322;29;20039;-71
2022/09/27 01:47:40;;;;;;;1.02;0.40;;;;;;;;;;4956636;29;20043;-71
2022/09/27 01:50:15;;;;;;;0.47;0.25;;;;;;;;;;4956522;29;20043;-71
2022/09/27 01:52:50;;;;;;;0.30;0.30;;;;;;;;;;4956870;29;20106;-71
2022/09/27 01:55:17;;;;;;;0.85;0.30;;;;;;;;;;4955495;28;20070;-71
2022/09/27 01:57:46;;;;;;;0.47;0.13;;;;;;;;;;4956495;29;20125;-71
2022/09/27 02:00:12;;;;;;;0.60;0.30;;;;;;;;;;4956494;29;20047;-71
2022/09/27 02:02:40;;;;;;;0.60;0.30;;;;;;;;;;4956682;29;20085;-71
2022/09/27 02:05:07;;;;;;;2.72;0.60;;;;;;;;;;4956164;29;20051;-71
2022/09/27 02:07:43;;;;;;;2.25;0.52;;;;;;;;;;4956637;29;20039;-71
2022/09/27 02:10:13;;;;;;;2.05;0.65;;;;;;;;;;4956123;29;20635;-71
2022/09/27 02:12:50;;;;;;;4.07;0.95;;;;;;;;;;4955656;29;20082;-72
2022/09/27 02:15:16;;;;;;;5.70;1.27;;;;;;;;;;4956363;29;20538;-71
2022/09/27 02:17:42;;;;;;;6.55;1.42;;;;;;;;;;4956295;29;20055;-71
2022/09/27 02:20:27;;;;;;;6.50;1.42;;;;;;;;;;4956811;29;20043;-71
2022/09/27 02:22:57;;;;;;;6.43;2.00;;;;;;;;;;4955965;29;20038;-71
2022/09/27 02:25:43;;;;;;;7.72;1.67;;;;;;;;;;4956269;29;20134;-71
2022/09/27 02:28:21;;;;;;;10.02;1.40;;;;;;;;;;4955678;29;20077;-71
2022/09/27 02:30:48;;;;;;;9.55;1.75;;;;;;;;;;4956460;29;20471;-71
2022/09/27 02:33:14;;;;;;;3.95;1.45;;;;;;;;;;4956230;29;20031;-71
2022/09/27 02:35:40;;;;;;;6.47;1.20;;;;;;;;;;4956077;29;20051;-71
2022/09/27 02:38:06;;;;;;;7.82;1.30;;;;;;;;;;4956161;29;20043;-71
2022/09/27 02:40:34;;;;;;;7.18;1.45;;;;;;;;;;4956617;29;20094;-71
2022/09/27 02:43:02;;;;;;;5.72;1.75;;;;;;;;;;4955961;29;20047;-71
2022/09/27 02:45:32;;;;;;;4.85;1.15;;;;;;;;;;4956108;29;20074;-71
2022/09/27 02:48:17;;;;;;;4.28;1.00;;;;;;;;;;4956039;29;20537;-71
2022/09/27 02:50:49;;;;;;;4.07;1.02;;;;;;;;;;4956533;29;20039;-71
2022/09/27 02:53:18;;;;;;;4.88;1.30;;;;;;;;;;4955694;29;20043;-71
2022/09/27 02:56:02;;;;;;;2.90;0.70;;;;;;;;;;4955938;29;20134;-71
2022/09/27 02:58:31;;;;;;;3.75;1.08;;;;;;;;;;4955764;29;20126;-71
2022/09/27 03:01:04;;;;;;;3.08;0.75;;;;;;;;;;4955633;29;20078;-71
2022/09/27 03:03:36;;;;;;;2.42;0.70;;;;;;;;;;4956245;29;20490;-71
2022/09/27 03:06:07;;;;;;;4.60;0.90;;;;;;;;;;4955972;28;20058;-71
2022/09/27 03:08:33;;;;;;;5.40;1.02;;;;;;;;;;4958890;29;20522;-71
2022/09/27 03:11:00;;;;;;;3.17;1.00;;;;;;;;;;4959100;29;20097;-71
2022/09/27 03:13:26;;;;;;;7.22;1.02;;;;;;;;;;4959084;29;20090;-71
2022/09/27 03:15:52;;;;;;;4.22;1.10;;;;;;;;;;4960067;29;20050;-71
2022/09/27 03:18:19;;;;;;;5.18;1.20;;;;;;;;;;4959913;29;20499;-71
2022/09/27 03:20:45;;;;;;;5.93;1.52;;;;;;;;;;4959460;29;20035;-71
2022/09/27 03:23:11;;;;;;;10.23;1.90;;;;;;;;;;4960025;29;20118;-71
2022/09/27 03:25:37;;;;;;;5.25;1.48;;;;;;;;;;4959337;29;20126;-71
2022/09/27 03:28:03;;;;;;;5.05;1.00;;;;;;;;;;4959627;29;20069;-71
2022/09/27 03:30:29;;;;;;;5.93;1.08;;;;;;;;;;4959337;29;20047;-71
2022/09/27 03:32:55;;;;;;;5.20;1.20;;;;;;;;;;4959771;29;20118;-71
2022/09/27 03:35:22;;;;;;;2.88;0.90;;;;;;;;;;4959724;29;20102;-71
2022/09/27 03:37:48;;;;;;;3.97;0.90;;;;;;;;;;4959287;29;20066;-71
2022/09/27 03:40:14;;;;;;;5.68;1.45;;;;;;;;;;4959075;29;20039;-71
2022/09/27 03:42:40;;;;;;;5.93;1.33;;;;;;;;;;4958911;29;20058;-71
2022/09/27 03:45:07;;;;;;;6.68;1.25;;;;;;;;;;4959011;29;20039;-71
2022/09/27 03:47:33;;;;;;;8.85;1.58;;;;;;;;;;4958650;29;20518;-71
2022/09/27 03:49:59;;;;;;;6.65;1.33;;;;;;;;;;4958952;29;20046;-71
2022/09/27 03:52:25;;;;;;;5.32;1.50;;;;;;;;;;4959247;29;20065;-71
2022/09/27 03:54:51;;;;;;;5.25;1.67;;;;;;;;;;4958532;29;20070;-71
2022/09/27 03:57:17;;;;;;;6.53;1.45;;;;;;;;;;4958845;29;20046;-71
2022/09/27 03:59:43;;;;;;;7.80;1.70;;;;;;;;;;4958814;29;20043;-71
2022/09/27 04:02:10;;;;;;;5.32;1.40;;;;;;;;;;4958730;29;20110;-71
2022/09/27 04:04:36;;;;;;;8.10;1.70;;;;;;;;;;4958039;29;20138;-71
2022/09/27 04:07:02;;;;;;;8.27;1.50;;;;;;;;;;4958379;29;20039;-71
2022/09/27 04:09:28;;;;;;;6.00;1.50;;;;;;;;;;4958605;29;20078;-71
2022/09/27 04:11:54;;;;;;;8.15;1.80;;;;;;;;;;4958254;29;20447;-71
2022/09/27 04:14:20;;;;;;;7.47;1.55;;;;;;;;;;4958196;29;20059;-71
2022/09/27 04:16:46;;;;;;;9.70;1.98;;;;;;;;;;4940960;29;20089;-71
2022/09/27 04:19:12;;;;;;;12.70;1.88;;;;;;;;;;4957106;28;20131;-71
2022/09/27 04:21:38;;;;;;;7.53;1.65;;;;;;;;;;4958118;29;20039;-71
2022/09/27 04:24:05;;;;;;;7.18;2.05;;;;;;;;;;4958251;29;20047;-71
2022/09/27 04:26:31;;;;;;;7.15;1.70;;;;;;;;;;4957922;29;20039;-71
2022/09/27 04:28:57;;;;;;;10.82;1.88;;;;;;;;;;4957525;29;20047;-71
2022/09/27 04:31:24;;;;;;;10.40;2.03;;;;;;;;;;4957822;29;20043;-71
2022/09/27 04:33:50;;;;;;;11.45;2.15;;;;;;;;;;4958035;29;20487;-71
2022/09/27 04:36:26;;;;;;;10.68;2.33;;;;;;;;;;4957656;29;20070;-70
2022/09/27 04:38:56;;;;;;;6.93;2.08;;;;;;;;;;4957759;29;20055;-72
2022/09/27 04:41:23;;;;;;;9.13;2.08;;;;;;;;;;4956853;29;20063;-72
2022/09/27 04:43:49;;;;;;;8.93;2.00;;;;;;;;;;4957465;29;20055;-72
2022/09/27 04:46:16;;;;;;;13.25;2.70;;;;;;;;;;4957506;29;20043;-72
2022/09/27 04:48:42;;;;;;;9.90;2.00;;;;;;;;;;4957029;29;20065;-71
2022/09/27 04:51:09;;;;;;;10.40;2.10;;;;;;;;;;4958497;28;20051;-72
2022/09/27 04:53:35;;;;;;;9.02;1.70;;;;;;;;;;4960951;28;20047;-72
2022/09/27 04:56:05;;;;;;;9.18;2.30;;;;;;;;;;4964413;28;20073;-72
2022/09/27 04:58:33;;;;;;;9.45;2.08;;;;;;;;;;4956042;28;20043;-72
2022/09/27 05:01:01;;;;;;;7.00;2.05;;;;;;;;;;4956570;29;20039;-72
2022/09/27 05:03:27;;;;;;;10.25;2.28;;;;;;;;;;4957690;28;20053;-72
2022/09/27 05:05:54;;;;;;;8.85;2.05;;;;;;;;;;4961907;28;20138;-72
2022/09/27 05:08:20;;;;;;;12.32;2.85;;;;;;;;;;4956659;28;20042;-72
2022/09/27 05:10:46;;;;;;;7.93;1.70;;;;;;;;;;4957065;28;20047;-72
2022/09/27 05:13:13;;;;;;;9.13;2.33;;;;;;;;;;4969345;28;20058;-72
2022/09/27 05:15:40;;;;;;;8.77;2.33;;;;;;;;;;4974770;28;20133;-72
2022/09/27 05:18:07;;;;;;;9.88;2.45;;;;;;;;;;4956995;29;20051;-71
2022/09/27 05:20:33;;;;;;;9.73;2.63;;;;;;;;;;4957326;29;20101;-70
2022/09/27 05:23:00;;;;;;;7.65;1.70;;;;;;;;;;4958136;28;20057;-70
2022/09/27 05:25:26;;;;;;;7.93;2.00;;;;;;;;;;4976280;28;20609;-70
2022/09/27 05:27:52;;;;;;;9.45;1.98;;;;;;;;;;4975875;28;20046;-70
2022/09/27 05:30:19;;;;;;;11.43;2.30;;;;;;;;;;4976305;28;20039;-70
2022/09/27 05:32:48;;;;;;;6.38;1.80;;;;;;;;;;4961347;28;20051;-70
2022/09/27 05:35:14;;;;;;;9.48;2.42;;;;;;;;;;4969356;28;20043;-70
2022/09/27 05:37:40;;;;;;;11.10;2.30;;;;;;;;;;4975950;28;20097;-70
2022/09/27 05:40:07;;;;;;;10.15;2.17;;;;;;;;;;4974080;28;20035;-70
2022/09/27 05:42:34;;;;;;;9.73;2.17;;;;;;;;;;4965834;28;20491;-70
2022/09/27 05:45:00;;;;;;;10.05;2.50;;;;;;;;;;4966290;28;20053;-70
2022/09/27 05:47:27;;;;;;;7.88;2.35;;;;;;;;;;4964246;28;20035;-70
2022/09/27 05:49:54;;;;;;;5.63;1.60;;;;;;;;;;4956909;28;20050;-72
2022/09/27 05:52:20;;;;;;;10.00;1.98;;;;;;;;;;4957357;28;20039;-72
2022/09/27 05:54:46;;;;;;;9.02;2.53;;;;;;;;;;4963737;28;20047;-72
2022/09/27 05:57:12;;;;;;;10.88;2.35;;;;;;;;;;4954762;29;20055;-72
2022/09/27 05:59:40;;;;;;;13.15;2.83;;;;;;;;;;4956019;29;20039;-73
2022/09/27 06:02:06;;;;;;;9.05;2.72;;;;;;;;;;4955207;28;20083;-72
2022/09/27 06:04:32;;;;;;;11.25;2.92;;;;;;;;;;4956089;29;20047;-72
2022/09/27 06:06:58;;;;;;;14.68;3.05;;;;;;;;;;4956687;29;20047;-72
2022/09/27 06:09:26;;;;;;;15.15;2.95;;;;;;;;;;4956508;29;20039;-72
2022/09/27 06:11:52;;;;;;;10.95;2.70;;;;;;;;;;4956578;29;20042;-72
2022/09/27 06:14:18;;;;;;;15.18;3.22;;;;;;;;;;4955165;29;20055;-73
2022/09/27 06:16:45;;;;;;;13.95;2.75;;;;;;;;;;4956228;29;20035;-73
2022/09/27 06:19:11;;;;;;;9.93;2.42;;;;;;;;;;4956060;29;20051;-72
2022/09/27 06:21:38;;;;;;;12.25;2.40;;;;;;;;;;4955870;29;20062;-73
2022/09/27 06:24:04;;;;;;;13.23;2.42;;;;;;;;;;4956197;29;20122;-72
2022/09/27 06:26:30;;;;;;;13.25;2.42;;;;;;;;;;4964641;28;20043;-73
2022/09/27 06:28:56;;;;;;;13.15;2.83;;;;;;;;;;4967245;28;20046;-72
2022/09/27 06:31:22;;;;;;;11.00;2.42;;;;;;;;;;4956734;28;20529;-72
2022/09/27 06:33:49;;;;;;;8.50;1.95;;;;;;;;;;4959969;28;20047;-73
2022/09/27 06:36:15;;;;;;;9.18;2.40;;;;;;;;;;4956034;29;20039;-73
2022/09/27 06:38:42;;;;;;;7.95;2.40;;;;;;;;;;4956156;29;20106;-72
2022/09/27 06:41:08;;;;;;;10.55;2.33;;;;;;;;;;4955862;28;20066;-73
2022/09/27 06:43:35;;;;;;;9.43;2.65;;;;;;;;;;4958865;28;20071;-73
2022/09/27 06:46:04;;;;;;;13.05;2.40;;;;;;;;;;4964353;28;20035;-73
2022/09/27 06:48:31;;;;;;;10.40;2.55;;;;;;;;;;4956793;29;20105;-73
2022/09/27 06:50:58;;;;;;;10.30;2.40;;;;;;;;;;4958834;29;20039;-72
2022/09/27 06:53:24;;;;;;;10.07;2.25;;;;;;;;;;4957877;29;20067;-72
2022/09/27 06:55:51;;;;;;;12.98;2.72;;;;;;;;;;4958748;29;20075;-72
2022/09/27 07:01:02;;;;;;;12.70;2.55;;;;;;;;;;4954653;29;20058;-73
2022/09/27 07:03:33;;;;;;;8.95;2.28;;;;;;;;;;4956674;29;20059;-72
2022/09/27 07:06:00;;;;;;;11.90;2.88;;;;;;;;;;4938137;29;20040;-73
2022/09/27 07:08:27;;;;;;;14.93;2.85;;;;;;;;;;4938884;29;20039;-73
2022/09/27 07:10:54;;;;;;;13.88;3.28;;;;;;;;;;4952163;28;20118;-73
2022/09/27 07:13:21;;;;;;;11.77;2.50;;;;;;;;;;4960515;28;20106;-74
2022/09/27 07:15:47;;;;;;;16.30;3.03;;;;;;;;;;4957703;29;20130;-73
2022/09/27 07:18:13;;;;;;;15.88;3.08;;;;;;;;;;4958853;28;20151;-73
2022/09/27 07:20:39;;;;;;;11.77;2.60;;;;;;;;;;4960010;28;20046;-73
2022/09/27 07:23:06;;;;;;;15.98;2.40;;;;;;;;;;4959063;28;20071;-73
2022/09/27 07:25:32;;;;;;;15.23;3.53;;;;;;;;;;4958688;29;20043;-73
2022/09/27 07:28:02;;;;;;;15.43;2.65;;;;;;;;;;4958015;29;20129;-74
2022/09/27 07:30:28;;;;;;;11.32;2.55;;;;;;;;;;4962183;28;20079;-73
2022/09/27 07:32:58;;;;;;;11.38;2.20;;;;;;;;;;4957796;29;20145;-73
2022/09/27 07:35:25;;;;;;;14.70;2.80;;;;;;;;;;4958193;29;20058;-74
2022/09/27 07:37:51;;;;;;;9.13;2.42;;;;;;;;;;4958267;29;20046;-73
2022/09/27 07:40:18;;;;;;;10.65;2.65;;;;;;;;;;4958827;29;20159;-74
2022/09/27 07:42:44;;;;;;;13.10;2.40;;;;;;;;;;4954904;29;20070;-74
2022/09/27 07:45:11;;;;;;;12.38;2.92;;;;;;;;;;4959029;28;20047;-73
2022/09/27 07:47:40;;;;;;;12.43;2.88;;;;;;;;;;4966691;28;20046;-73
2022/09/27 07:50:09;;;;;;;13.38;3.58;;;;;;;;;;4964938;28;20035;-74
2022/09/27 07:52:39;;;;;;;12.10;2.70;;;;;;;;;;4961060;28;20063;-74
2022/09/27 07:55:05;;;;;;;;;;;;;;;;;;4958128;28;20043;-73
2022/09/27 07:57:32;;;;;;;13.27;2.63;;;;;;;;;;4968715;28;20317;-73
2022/09/27 07:59:58;;;;;;;10.93;2.30;;;;;;;;;;4956703;29;20048;-73
2022/09/27 08:02:24;;;;;;;10.90;2.13;;;;;;;;;;4957465;29;20047;-74
2022/09/27 08:04:51;;;;;;;15.40;3.08;;;;;;;;;;4965751;28;20045;-73
2022/09/27 08:07:17;;;;;;;8.98;2.30;;;;;;;;;;4961516;28;20070;-73
2022/09/27 08:09:43;;;;;;;14.55;2.90;;;;;;;;;;4958113;29;20039;-73
2022/09/27 08:12:10;;;;;;;12.52;2.45;;;;;;;;;;4971377;28;20058;-73
2022/09/27 08:14:36;;;;;;;14.00;2.60;;;;;;;;;;4961487;28;20059;-73
2022/09/27 08:17:02;;;;;;;15.30;3.47;;;;;;;;;;4968489;28;20047;-73
2022/09/27 08:19:28;;;;;;;9.85;2.65;;;;;;;;;;4970347;28;20051;-73
2022/09/27 08:21:55;;;;;;;11.82;2.42;;;;;;;;;;4961359;28;20118;-73
2022/09/27 08:24:21;;;;;;;10.30;2.55;;;;;;;;;;4972528;28;20054;-73
2022/09/27 08:26:47;;;;;;;16.08;2.95;;;;;;;;;;4973045;28;20526;-73
2022/09/27 08:29:13;;;;;;;14.68;2.50;;;;;;;;;;4962978;28;20047;-73
2022/09/27 08:31:39;;;;;;;8.10;2.05;;;;;;;;;;4958056;28;20062;-73
2022/09/27 08:34:05;;;;;;;10.82;2.55;;;;;;;;;;4963961;28;20050;-73
2022/09/27 08:36:34;;;;;;;11.50;2.60;;;;;;;;;;4965849;28;20102;-73
2022/09/27 08:39:01;;;;;;;11.25;3.17;;;;;;;;;;4969886;28;20077;-73
2022/09/27 08:41:44;;;;;;;15.15;2.80;;;;;;;;;;4959340;28;20510;-73
2022/09/27 08:44:18;;;;;;;13.30;2.65;;;;;;;;;;4965227;28;20049;-73
2022/09/27 08:46:54;;;;;;;11.07;2.65;;;;;;;;;;4963556;28;20051;-73
2022/09/27 08:49:27;;;;;;;13.70;3.17;;;;;;;;;;4961487;28;20035;-73
2022/09/27 08:51:54;;;;;;;12.63;2.60;;;;;;;;;;4960907;28;20106;-73
2022/09/27 08:54:29;;;;;;;14.13;2.80;;;;;;;;;;4968551;28;20054;-73
2022/09/27 08:57:04;;;;;;;10.48;2.50;;;;;;;;;;4963918;28;20490;-73
2022/09/27 08:59:35;;;;;;;13.45;2.70;;;;;;;;;;4964870;28;20062;-73
2022/09/27 09:02:02;;;;;;;10.23;2.25;;;;;;;;;;4959058;28;20047;-73
2022/09/27 09:04:33;;;;;;;12.82;2.50;;;;;;;;;;4966229;28;20041;-73
2022/09/27 09:07:17;;;;;;;14.27;2.72;;;;;;;;;;4954954;28;20459;-73
2022/09/27 09:09:49;;;;;;;12.52;3.15;;;;;;;;;;4960615;28;20427;-73
2022/09/27 09:15:18;;;;;;;13.57;2.53;;;;;;;;;;4957577;28;20073;-73
2022/09/27 09:17:44;;;;;;;12.40;2.50;;;;;;;;;;4962325;28;20502;-73
2022/09/27 09:20:21;;;;;;;12.07;2.45;;;;;;;;;;4965693;28;20095;-73
2022/09/27 09:22:47;;;;;;;9.52;2.33;;;;;;;;;;4966775;28;20359;-73
2022/09/27 09:25:27;;;;;;;9.30;2.10;;;;;;;;;;4957143;28;20047;-73
2022/09/27 09:28:05;;;;;;;9.00;2.40;;;;;;;;;;4964135;28;20042;-74
2022/09/27 09:30:52;;;;;;;10.00;2.03;;;;;;;;;;4972490;28;20047;-74
2022/09/27 09:33:30;;;;;;;8.60;1.98;;;;;;;;;;4949996;29;20121;-74
2022/09/27 09:36:01;;;;;;;10.82;2.50;;;;;;;;;;4956021;29;20129;-73
2022/09/27 09:38:27;;;;;;;13.50;1.80;;;;;;;;;;4956871;29;20398;-73
2022/09/27 09:40:59;;;;;;;9.18;2.13;;;;;;;;;;4955660;28;20047;-74
2022/09/27 09:43:31;;;;;;;10.35;2.35;;;;;;;;;;4962098;28;20105;-74
2022/09/27 09:46:01;;;;;;;6.53;1.70;;;;;;;;;;4954398;28;20051;-74
2022/09/27 09:48:34;;;;;;;7.18;1.60;;;;;;;;;;4965659;28;20546;-73
2022/09/27 09:51:01;;;;;;;7.55;1.60;;;;;;;;;;4971242;28;20506;-76
2022/09/27 09:53:48;;;;;;;6.28;1.67;;;;;;;;;;4975383;28;20073;-74
2022/09/27 09:56:23;;;;;;;9.07;2.10;;;;;;;;;;4971048;28;20047;-74
2022/09/27 09:59:01;;;;;;;9.50;1.77;;;;;;;;;;4962750;28;20047;-75
2022/09/27 10:01:27;;;;;;;6.68;1.70;;;;;;;;;;4959850;28;20041;-74
2022/09/27 10:03:54;;;;;;;8.23;1.70;;;;;;;;;;4954709;28;20192;-73
2022/09/27 10:06:21;;;;;;;7.95;1.70;;;;;;;;;;4954861;28;20043;-73
2022/09/27 10:08:48;;;;;;;6.07;1.60;;;;;;;;;;4959852;28;20047;-73
2022/09/27 10:11:20;;;;;;;5.80;1.55;;;;;;;;;;4965572;28;20039;-73
2022/09/27 10:13:47;;;;;;;6.80;2.08;;;;;;;;;;4972822;28;20138;-73
2022/09/27 10:16:15;;;;;;;5.05;1.60;;;;;;;;;;4957826;28;20082;-73
2022/09/27 10:18:41;;;;;;;8.13;1.63;;;;;;;;;;4965092;28;20471;-73
2022/09/27 10:21:28;;;;;;;7.97;2.33;;;;;;;;;;4965747;28;20070;-73
2022/09/27 10:24:08;;;;;;;6.93;2.17;;;;;;;;;;4962471;28;20545;-73
2022/09/27 10:26:35;;;;;;;7.70;2.17;;;;;;;;;;4970297;28;20045;-73
2022/09/27 10:29:19;;;;;;;6.97;1.60;;;;;;;;;;4969558;28;20035;-76
2022/09/27 10:31:47;;;;;;;5.90;1.75;;;;;;;;;;4965191;28;20036;-77
2022/09/27 10:34:22;;;;;;;9.80;2.03;;;;;;;;;;4974800;28;20586;-76
2022/09/27 10:37:01;;;;;;;5.10;1.70;;;;;;;;;;4958927;28;20055;-76
2022/09/27 10:39:27;;;;;;;8.45;1.75;;;;;;;;;;4958686;29;20047;-77
2022/09/27 10:41:53;;;;;;;5.03;1.65;;;;;;;;;;4960912;28;20073;-75
2022/09/27 10:44:24;;;;;;;7.82;1.60;;;;;;;;;;4976720;28;20070;-74
2022/09/27 10:46:50;;;;;;;;;;;;;;;;;;4979178;28;20098;-75
2022/09/27 10:49:22;;;;;;;8.43;2.08;;;;;;;;;;4972231;28;19910;-75
2022/09/27 10:51:56;;;;;;;7.60;1.85;;;;;;;;;;4943067;29;20043;-75
2022/09/27 10:54:27;;;;;;;7.10;1.52;;;;;;;;;;4963776;28;20129;-74
2022/09/27 10:57:03;;;;;;;6.47;1.50;;;;;;;;;;4978558;28;20051;-74
2022/09/27 10:59:30;;;;;;;8.80;1.70;;;;;;;;;;4970243;28;20047;-74
2022/09/27 11:01:57;;;;;;;8.10;1.65;;;;;;;;;;4967488;28;20041;-75
2022/09/27 11:04:36;;;;;;;6.55;1.45;;;;;;;;;;4961473;28;20050;-73
2022/09/27 11:07:13;;;;;;;8.02;1.50;;;;;;;;;;4959725;28;20038;-75
2022/09/27 11:09:53;;;;;;;9.18;1.67;;;;;;;;;;4963227;28;20058;-75
2022/09/27 11:12:21;;;;;;;6.07;1.65;;;;;;;;;;4959002;29;20048;-75
2022/09/27 11:14:53;;;;;;;5.65;1.65;;;;;;;;;;4958430;28;20063;-75
2022/09/27 11:17:22;;;;;;;8.95;2.00;;;;;;;;;;4958089;29;20054;-76
2022/09/27 11:19:56;;;;;;;6.35;1.60;;;;;;;;;;4965808;28;20081;-76
2022/09/27 11:22:23;;;;;;;8.02;1.65;;;;;;;;;;4976248;28;20039;-76
2022/09/27 11:25:00;;;;;;;6.07;1.95;;;;;;;;;;4948753;28;20152;-75
2022/09/27 11:27:45;;;;;;;8.73;1.90;;;;;;;;;;4961090;28;20035;-75
2022/09/27 11:30:14;;;;;;;8.00;1.55;;;;;;;;;;4960812;28;20039;-75
2022/09/27 11:32:58;;;;;;;6.72;1.70;;;;;;;;;;4966133;28;20106;-74
2022/09/27 11:35:33;;;;;;;10.15;2.30;;;;;;;;;;4958912;28;20047;-73
2022/09/27 11:38:11;;;;;;;8.73;2.03;;;;;;;;;;4958580;29;20072;-74
2022/09/27 11:40:59;;;;;;;4.15;1.20;;;;;;;;;;4958621;29;20075;-74
2022/09/27 11:43:37;;;;;;;7.25;1.67;;;;;;;;;;4958318;28;20031;-72
2022/09/27 11:46:03;;;;;;;4.85;1.38;;;;;;;;;;4960876;28;20058;-75
2022/09/27 11:48:52;;;;;;;3.85;1.40;;;;;;;;;;4962739;28;20074;-74
2022/09/27 11:51:39;;;;;;;10.35;1.92;;;;;;;;;;4952134;28;20106;-74
2022/09/27 11:54:09;;;;;;;8.27;1.60;;;;;;;;;;4958373;28;20050;-74
2022/09/27 11:56:38;;;;;;;8.57;1.42;;;;;;;;;;4961730;28;20043;-74
2022/09/27 11:59:16;;;;;;;10.30;1.90;;;;;;;;;;4961823;28;20051;-73
2022/09/27 12:01:48;;;;;;;5.60;1.58;;;;;;;;;;4939381;29;20122;-74
2022/09/27 12:04:21;;;;;;;6.63;1.67;;;;;;;;;;4958907;28;20047;-71
2022/09/27 12:07:09;;;;;;;4.88;1.30;;;;;;;;;;4961296;28;20047;-72
2022/09/27 12:09:37;;;;;;;6.35;1.63;;;;;;;;;;4962592;28;20039;-73
2022/09/27 12:12:14;;;;;;;7.28;1.77;;;;;;;;;;4977927;28;20043;-71
2022/09/27 12:14:42;;;;;;;8.60;2.05;;;;;;;;;;4976057;28;20421;-72
2022/09/27 12:17:14;;;;;;;5.93;1.63;;;;;;;;;;4966453;28;20118;-72
2022/09/27 12:19:43;;;;;;;8.25;1.40;;;;;;;;;;4958471;29;20070;-72
2022/09/27 12:22:14;;;;;;;5.93;1.65;;;;;;;;;;4970303;28;20057;-73
2022/09/27 12:24:40;;;;;;;7.28;1.55;;;;;;;;;;4971388;28;20055;-73
2022/09/27 12:27:31;;;;;;;5.88;1.77;;;;;;;;;;4957969;28;20122;-73
2022/09/27 12:29:57;;;;;;;5.95;1.80;;;;;;;;;;4969566;28;20043;-72
2022/09/27 12:32:43;;;;;;;7.47;2.00;;;;;;;;;;4961400;28;20047;-73
2022/09/27 12:35:10;;;;;;;7.50;1.45;;;;;;;;;;4972032;28;20422;-73
2022/09/27 12:37:48;;;;;;;7.10;1.42;;;;;;;;;;4958066;29;20043;-74
2022/09/27 12:40:23;;;;;;;3.00;0.90;;;;;;;;;;4957322;28;20070;-74
2022/09/27 12:42:55;;;;;;;5.72;1.40;;;;;;;;;;4964781;28;20070;-73
2022/09/27 12:45:27;;;;;;;3.08;1.10;;;;;;;;;;4977083;28;20055;-72
2022/09/27 12:48:03;;;;;;;3.42;1.02;;;;;;;;;;4972449;28;20091;-73
2022/09/27 12:50:32;;;;;;;4.93;1.10;;;;;;;;;;4969935;28;20057;-73
2022/09/27 12:53:05;;;;;;;3.47;1.00;;;;;;;;;;4962397;28;20115;-73
2022/09/27 12:55:39;;;;;;;2.92;1.00;;;;;;;;;;4959769;28;20051;-73
2022/09/27 12:58:30;;;;;;;4.10;0.95;;;;;;;;;;4961173;28;20055;-73
2022/09/27 13:00:59;;;;;;;4.68;1.20;;;;;;;;;;4962664;28;20035;-73
2022/09/27 13:03:36;;;;;;;2.17;0.73;;;;;;;;;;4960565;28;20035;-73
2022/09/27 13:06:12;;;;;;;4.15;0.98;;;;;;;;;;4960545;28;20055;-73
2022/09/27 13:08:39;;;;;;;2.45;0.90;;;;;;;;;;4940959;28;20214;-72
2022/09/27 13:11:25;;;;;;;1.65;0.80;;;;;;;;;;4973486;28;20042;-73
2022/09/27 13:13:55;;;;;;;4.60;1.10;;;;;;;;;;4975763;28;20063;-73
2022/09/27 13:16:21;;;;;;;3.00;1.00;;;;;;;;;;4958256;28;20099;-73
2022/09/27 13:18:51;;;;;;;4.35;0.90;;;;;;;;;;4946894;29;20054;-73
2022/09/27 13:21:47;;;;;;;3.58;0.80;;;;;;;;;;4959572;28;20041;-72
2022/09/27 13:24:32;;;;;;;4.28;0.98;;;;;;;;;;4945030;28;20051;-72
2022/09/27 13:27:00;;;;;;;4.75;1.30;;;;;;;;;;4956791;29;20138;-72
2022/09/27 13:29:30;;;;;;;6.38;1.30;;;;;;;;;;4956713;29;20043;-72
2022/09/27 13:31:56;;;;;;;5.20;1.10;;;;;;;;;;4957327;28;20050;-72
2022/09/27 13:34:41;;;;;;;5.43;0.98;;;;;;;;;;4956538;29;20520;-72
2022/09/27 13:37:26;;;;;;;4.55;0.90;;;;;;;;;;4956613;29;20051;-72
2022/09/27 13:40:12;;;;;;;2.92;1.00;;;;;;;;;;4958745;28;20055;-71
2022/09/27 13:42:45;;;;;;;3.10;0.75;;;;;;;;;;4937841;29;20039;-73
2022/09/27 13:45:27;;;;;;;7.32;1.10;;;;;;;;;;4943628;28;20545;-72
2022/09/27 13:47:55;;;;;;;4.60;1.30;;;;;;;;;;4963776;28;20043;-72
2022/09/27 13:50:26;;;;;;;4.40;1.08;;;;;;;;;;4972647;28;20097;-71
2022/09/27 13:52:58;;;;;;;4.97;1.25;;;;;;;;;;4955973;29;20035;-72
2022/09/27 13:55:40;;;;;;;5.45;1.08;;;;;;;;;;4959402;28;20141;-72
2022/09/27 13:58:22;;;;;;;4.13;1.08;;;;;;;;;;4958714;28;20046;-72
2022/09/27 14:00:50;;;;;;;6.50;1.40;;;;;;;;;;4957216;28;20051;-72
2022/09/27 14:03:19;;;;;;;4.45;1.20;;;;;;;;;;4955740;29;20047;-72
2022/09/27 14:05:54;;;;;;;4.38;1.00;;;;;;;;;;4950348;28;20039;-72
2022/09/27 14:08:26;;;;;;;5.82;0.95;;;;;;;;;;4949556;28;20047;-72
2022/09/27 14:10:53;;;;;;;4.35;0.82;;;;;;;;;;4957496;28;20046;-72
2022/09/27 14:13:20;;;;;;;4.05;0.82;;;;;;;;;;4951989;28;20067;-72
2022/09/27 14:15:47;;;;;;;4.70;1.20;;;;;;;;;;4952831;28;20047;-71
2022/09/27 14:18:16;;;;;;;4.38;0.77;;;;;;;;;;4959169;28;20126;-72
2022/09/27 14:20:44;;;;;;;3.72;0.90;;;;;;;;;;4955269;29;20070;-71
2022/09/27 14:23:18;;;;;;;4.95;1.17;;;;;;;;;;4958865;28;20054;-71
2022/09/27 14:25:46;;;;;;;4.38;0.95;;;;;;;;;;4959011;28;20073;-71
2022/09/27 14:28:21;;;;;;;3.30;0.88;;;;;;;;;;4955761;29;20043;-71
2022/09/27 14:30:47;;;;;;;4.20;0.90;;;;;;;;;;4956661;28;20042;-71
2022/09/27 14:33:29;;;;;;;4.97;1.00;;;;;;;;;;4956614;29;20082;-72
2022/09/27 14:38:41;;;;;;;3.75;0.85;;;;;;;;;;4974945;28;20472;-71
2022/09/27 14:41:08;;;;;;;5.68;0.80;;;;;;;;;;4973643;28;20051;-72
2022/09/27 14:43:35;;;;;;;2.35;0.77;;;;;;;;;;4961966;28;20042;-72
2022/09/27 14:46:07;;;;;;;5.95;1.00;;;;;;;;;;4959090;28;20047;-72
2022/09/27 14:48:35;;;;;;;4.70;1.05;;;;;;;;;;4957913;28;20105;-72
2022/09/27 14:51:02;;;;;;;4.65;1.20;;;;;;;;;;4957397;28;20074;-73
2022/09/27 14:53:42;;;;;;;3.88;1.42;;;;;;;;;;4963658;28;20499;-73
2022/09/27 14:56:17;;;;;;;4.17;1.23;;;;;;;;;;4955001;29;20111;-73
2022/09/27 14:58:44;;;;;;;3.58;0.93;;;;;;;;;;4956292;28;20035;-72
2022/09/27 15:01:18;;;;;;;4.80;1.15;;;;;;;;;;4955359;28;20043;-73
2022/09/27 15:03:45;;;;;;;4.53;1.05;;;;;;;;;;4960919;28;20074;-73
2022/09/27 15:06:11;;;;;;;4.93;1.10;;;;;;;;;;4965701;28;20146;-72
2022/09/27 15:08:38;;;;;;;4.47;1.00;;;;;;;;;;4978818;28;20034;-71